WetterOnline ( http://www.wetteronline.de )

Wetter aktuell Ghedi

Aktuelles Wetter: Ghedi (97m)

6-stündlich | Neueste Meldungen
Ortszeit Temperatur Wetter
Mi, 17.10. 2:00 16.1° C leicht bewölkt
Di, 16.10. 20:00 17.4° C leicht bewölkt
Di, 16.10. 14:00 21.6° C leicht bewölkt
Di, 16.10. 8:00 13.2° C leicht bewölkt
Di, 16.10. 2:00 14.8° C wolkenlos
Mo, 15.10. 20:00 18.0° C leicht bewölkt
Mo, 15.10. 14:00 22.2° C leicht bewölkt
Mo, 15.10. 8:00 12.0° C leicht bewölkt
Ortszeit Temperatur Wetter
Mi, 17.10. 2:00 16.1° C leicht bewölkt
Mi, 17.10. 1:55 16° C leicht bewölkt, Dunst
Mi, 17.10. 1:00 16.8° C leicht bewölkt
Mi, 17.10. 0:55 17° C bewölkt, Dunst
Mi, 17.10. 0:00 16.8° C leicht bewölkt
Di, 16.10. 23:55 17° C bewölkt, Dunst
Di, 16.10. 23:00 16.3° C leicht bewölkt
Di, 16.10. 22:55 16° C bewölkt, Dunst
Di, 16.10. 22:00 16.8° C leicht bewölkt
Ortszeit Relative Feuchte Sichtweite
Mi, 17.10. 2:00 90% 5.0 km
Di, 16.10. 20:00 79% 6 km
Di, 16.10. 14:00 58% 10 km
Di, 16.10. 8:00 98% 8 km
Di, 16.10. 2:00 90% 8 km
Mo, 15.10. 20:00 74% 8 km
Mo, 15.10. 14:00 58% 10 km
Mo, 15.10. 8:00 100% 6 km
Ortszeit Relative Feuchte Sichtweite
Mi, 17.10. 2:00 90% 5.0 km
Mi, 17.10. 1:55 88% 5.0 km
Mi, 17.10. 1:00 89% 5.0 km
Mi, 17.10. 0:55 88% 5.0 km
Mi, 17.10. 0:00 88% 5.0 km
Di, 16.10. 23:55 88% 5.0 km
Di, 16.10. 23:00 88% 5.0 km
Di, 16.10. 22:55 88% 5.0 km
Di, 16.10. 22:00 85% 6 km
Ortszeit Niederschlagsmenge Niederschlagsart
Mi, 17.10. 2:00 0.0 l/m2 in 6 Std. -
Di, 16.10. 20:00 0.0 l/m2 in 12 Std. -
Di, 16.10. 14:00 0.0 l/m2 in 6 Std. -
Di, 16.10. 8:00 0.0 l/m2 in 12 Std. -
Di, 16.10. 2:00 0.0 l/m2 in 6 Std. -
Mo, 15.10. 20:00 0.0 l/m2 in 12 Std. -
Mo, 15.10. 14:00 0.0 l/m2 in 6 Std. -
Mo, 15.10. 8:00 0.0 l/m2 in 12 Std. -
Ortszeit Niederschlagsmenge Niederschlagsart
Mi, 17.10. 2:00 keine Meldung -
Mi, 17.10. 1:55 keine Meldung -
Mi, 17.10. 1:00 keine Meldung -
Mi, 17.10. 0:55 keine Meldung -
Mi, 17.10. 0:00 keine Meldung -
Di, 16.10. 23:55 keine Meldung -
Di, 16.10. 23:00 keine Meldung -
Di, 16.10. 22:55 keine Meldung -
Di, 16.10. 22:00 keine Meldung -
Ortszeit Stärke Spitze Richtung
km/h Bft. km/h Grad Sektor
Mi, 17.10. 2:00 4 1 - 240° SW
Di, 16.10. 20:00 2 1 - 250° W
Di, 16.10. 14:00 7 2 - 110° O
Di, 16.10. 8:00 4 1 - 20° N
Di, 16.10. 2:00 6 1 - 30° NO
Mo, 15.10. 20:00 9 2 - 80° O
Mo, 15.10. 14:00 19 3 - 110° O
Mo, 15.10. 8:00 4 1 - 10° N
Ortszeit Stärke Spitze Richtung
km/h Bft. km/h Grad Sektor
Mi, 17.10. 2:00 4 1 - 240° SW
Mi, 17.10. 1:55 4 1 - 240° SW
Mi, 17.10. 1:00 4 1 - 240° SW
Mi, 17.10. 0:55 4 1 - 240° SW
Mi, 17.10. 0:00 4 1 - 310° NW
Di, 16.10. 23:55 4 1 - 310° NW
Di, 16.10. 23:00 6 1 - 330° NW
Di, 16.10. 22:55 6 1 - 330° NW
Di, 16.10. 22:00 4 1 - 330° NW
Ortszeit Untergrenze Bedeckung Gattung
total tief tief mittel hoch
Mi, 17.10. 2:00 900 m 5/8 2/8 Cu Ac -
Di, 16.10. 20:00 1800 m 6/8 6/8 - Ac -
Di, 16.10. 14:00 3000 m 6/8 6/8 - Ac -
Di, 16.10. 8:00 3600 m 4/8 4/8 - Ac -
Di, 16.10. 2:00 - 0/8 0/8 - - -
Mo, 15.10. 20:00 1200 m 3/8 2/8 Cu - Ci
Mo, 15.10. 14:00 1200 m 4/8 2/8 Cu Ac Ci
Mo, 15.10. 8:00 2100 m 2/8 2/8 - Ac -
Ortszeit Bedeckungsgrad in Achtel und Wolkenuntergrenze
Mi, 17.10. 2:00 2(900m) 3(2100m)
Mi, 17.10. 1:55 1-2(900m) 3-4(2100m)
Mi, 17.10. 1:00 6(1800m)
Mi, 17.10. 0:55 5-7(1800m)
Mi, 17.10. 0:00 6(1800m)
Di, 16.10. 23:55 5-7(1800m)
Di, 16.10. 23:00 5(2100m)
Di, 16.10. 22:55 5-7(2100m)
Di, 16.10. 22:00 5(2100m)
Ortszeit Luftdruck NN (hPa) Tendenz (hPa in 3 Std.)
Mi, 17.10. 2:00 1021 - 0,3
Di, 16.10. 20:00 1021 + 0,5
Di, 16.10. 14:00 1021 - 0,1
Di, 16.10. 8:00 1020 - 0,2
Di, 16.10. 2:00 1020 0,0
Mo, 15.10. 20:00 1020 + 1,2
Mo, 15.10. 14:00 1019 - 0,4
Mo, 15.10. 8:00 1019 - 0,4
Ortszeit Luftdruck NN (hPa) Tendenz (hPa in 3 Std.)
Mi, 17.10. 2:00 1021 - 0,3
Mi, 17.10. 1:55 1020 keine Meldung
Mi, 17.10. 1:00 1021 - 0,4
Mi, 17.10. 0:55 1020 keine Meldung
Mi, 17.10. 0:00 1021 0,0
Di, 16.10. 23:55 1021 keine Meldung
Di, 16.10. 23:00 1021 + 0,2
Di, 16.10. 22:55 1021 keine Meldung
Di, 16.10. 22:00 1021 + 0,5
Ortszeit Schneehöhe (cm)
Mi, 17.10. 2:00 -
Di, 16.10. 20:00 -
Di, 16.10. 14:00 -
Di, 16.10. 8:00 0
Di, 16.10. 2:00 -
Mo, 15.10. 20:00 -
Mo, 15.10. 14:00 -
Mo, 15.10. 8:00 0
Ortszeit Schneehöhe (cm)
Mi, 17.10. 2:00 -
Mi, 17.10. 1:55 -
Mi, 17.10. 1:00 -
Mi, 17.10. 0:55 -
Mi, 17.10. 0:00 -
Di, 16.10. 23:55 -
Di, 16.10. 23:00 -
Di, 16.10. 22:55 -
Di, 16.10. 22:00 -
Link zu dieser Seite / Seite empfehlen

Das Wetter in ...